Time;durP1;ratioP1;P1;durP2;ratioP2;P2;SDS_P1;SDS_P2;PMS_P1;PMS_P2;Temp;Humidity;BMP_temperature;BMP_pressure;BME280_temperature;BME280_humidity;BME280_pressure;Samples;Min_cycle;Max_cycle;Signal;HPM_P1;HPM_P2
2020/12/23 00:01:05;;;;;;;3.45;2.15;;;;;;;-2.31;93.22;101698.59;1732579;82;21186;-54
2020/12/23 00:03:35;;;;;;;0.78;0.78;;;;;;;-2.30;93.28;101706.97;1731981;81;21134;-54
2020/12/23 00:06:02;;;;;;;1.57;0.60;;;;;;;-2.30;93.30;101698.08;1730995;81;21121;-54
2020/12/23 00:08:30;;;;;;;0.03;0.03;;;;;;;-2.30;93.37;101695.41;1727032;81;21123;-53
2020/12/23 00:10:57;;;;;;;0.45;0.45;;;;;;;-2.31;93.43;101699.09;1700515;83;21596;-54
2020/12/23 00:13:25;;;;;;;0.20;0.20;;;;;;;-2.32;93.52;101694.24;1726958;83;21193;-54
2020/12/23 00:15:53;;;;;;;1.50;0.85;;;;;;;-2.33;93.57;101693.89;1727122;82;21417;-53
2020/12/23 00:18:20;;;;;;;0.40;0.40;;;;;;;-2.33;93.62;101689.88;1727161;83;21517;-54
2020/12/23 00:20:47;;;;;;;0.20;0.20;;;;;;;-2.31;93.66;101694.57;1726945;81;21150;-53
2020/12/23 00:23:15;;;;;;;0.90;0.50;;;;;;;-2.32;93.73;101684.87;1727149;83;21130;-54
2020/12/23 00:25:43;;;;;;;0.60;0.60;;;;;;;-2.33;93.73;101687.20;1727021;81;21490;-54
2020/12/23 00:28:12;;;;;;;0.40;0.40;;;;;;;-2.34;93.70;101680.18;1727258;82;21613;-53
2020/12/23 00:30:41;;;;;;;0.23;0.23;;;;;;;-2.35;93.55;101683.84;1727098;81;21553;-54
2020/12/23 00:33:10;;;;;;;1.67;0.57;;;;;;;-2.35;93.63;101682.50;1723399;83;21588;-54
2020/12/23 00:35:38;;;;;;;0.45;0.45;;;;;;;-2.34;93.67;101686.05;1727261;81;21158;-54
2020/12/23 00:38:05;;;;;;;1.85;1.20;;;;;;;-2.34;93.75;101686.05;1727139;82;21150;-54
2020/12/23 00:40:32;;;;;;;0.17;0.17;;;;;;;-2.33;93.72;101687.20;1727330;81;22058;-53
2020/12/23 00:43:00;;;;;;;1.15;0.95;;;;;;;-2.33;93.67;101684.52;1727353;82;21504;-54
2020/12/23 00:45:27;;;;;;;1.02;1.02;;;;;;;-2.32;93.56;101684.87;1727332;81;21126;-54
2020/12/23 00:47:55;;;;;;;0.10;0.10;;;;;;;-2.31;93.58;101681.69;1727269;83;21142;-54
2020/12/23 00:50:22;;;;;;;0.00;0.00;;;;;;;-2.32;93.55;101676.84;1727222;81;21104;-53
2020/12/23 00:52:50;;;;;;;1.80;1.50;;;;;;;-2.31;93.57;101678.50;1727256;82;21131;-54
2020/12/23 00:55:18;;;;;;;0.10;0.10;;;;;;;-2.32;93.57;101674.16;1727268;81;21171;-54
2020/12/23 00:57:45;;;;;;;1.65;1.55;;;;;;;-2.30;93.57;101671.30;1727247;83;21588;-54
2020/12/23 01:00:13;;;;;;;0.35;0.35;;;;;;;-2.30;93.67;101673.50;1727288;81;21129;-54
2020/12/23 01:02:41;;;;;;;0.53;0.53;;;;;;;-2.30;93.62;101674.84;1727090;83;21146;-54
2020/12/23 01:05:09;;;;;;;0.23;0.23;;;;;;;-2.29;93.56;101668.47;1745801;81;21199;-54
2020/12/23 01:07:36;;;;;;;0.30;0.30;;;;;;;-2.28;93.51;101671.98;1765634;81;21631;-53
2020/12/23 01:10:03;;;;;;;0.53;0.53;;;;;;;-2.28;93.43;101669.30;1768665;79;21119;-53
2020/12/23 01:12:31;;;;;;;0.30;0.20;;;;;;;-2.27;93.42;101671.00;1768711;81;21166;-54
2020/12/23 01:14:58;;;;;;;0.10;0.10;;;;;;;-2.27;93.39;101662.97;1768658;81;21138;-53
2020/12/23 01:17:26;;;;;;;0.53;0.53;;;;;;;-2.26;93.38;101658.77;1768706;81;21118;-54
2020/12/23 01:19:53;;;;;;;0.35;0.35;;;;;;;-2.26;93.28;101642.70;1768690;81;21121;-54
2020/12/23 01:22:22;;;;;;;0.57;0.57;;;;;;;-2.27;93.16;101642.38;1768771;81;21118;-53
2020/12/23 01:24:49;;;;;;;0.13;0.13;;;;;;;-2.28;93.09;101638.00;1768536;79;21604;-54
2020/12/23 01:27:16;;;;;;;1.50;1.40;;;;;;;-2.27;93.07;101640.20;1768639;81;21122;-54
2020/12/23 01:29:44;;;;;;;0.20;0.20;;;;;;;-2.26;93.07;101635.17;1768677;81;21620;-54
2020/12/23 01:32:11;;;;;;;0.33;0.33;;;;;;;-2.26;93.07;101633.33;1768720;81;21581;-54
2020/12/23 01:34:39;;;;;;;0.55;0.55;;;;;;;-2.26;93.05;101631.98;1768778;81;21625;-53
2020/12/23 01:37:07;;;;;;;0.10;0.10;;;;;;;-2.27;92.96;101630.33;1768751;81;21616;-54
2020/12/23 01:39:34;;;;;;;0.33;0.33;;;;;;;-2.26;92.95;101629.81;1768698;79;21174;-54
2020/12/23 01:42:02;;;;;;;0.10;0.10;;;;;;;-2.27;92.96;101626.31;1768897;81;21141;-54
2020/12/23 01:44:30;;;;;;;0.90;0.40;;;;;;;-2.28;92.92;101621.94;1768810;81;21584;-53
2020/12/23 01:46:57;;;;;;;1.55;0.82;;;;;;;-2.26;92.91;101619.94;1768778;81;21589;-53
2020/12/23 01:49:24;;;;;;;0.62;0.45;;;;;;;-2.26;92.88;101614.58;1714515;81;21146;-53
2020/12/23 01:51:52;;;;;;;0.42;0.42;;;;;;;-2.27;92.87;101614.77;1768841;81;21233;-53
2020/12/23 01:54:19;;;;;;;0.20;0.20;;;;;;;-2.27;92.91;101612.92;1768787;81;21112;-54
2020/12/23 01:56:47;;;;;;;0.90;0.57;;;;;;;-2.26;92.96;101613.75;1768691;81;21122;-54
2020/12/23 01:59:15;;;;;;;0.30;0.30;;;;;;;-2.25;92.93;101599.34;1768766;81;21154;-53
2020/12/23 02:01:47;;;;;;;0.40;0.40;;;;;;;-2.25;92.86;101601.55;1768779;81;21554;-54
2020/12/23 02:04:16;;;;;;;0.30;0.30;;;;;;;-2.25;92.91;101596.19;1782280;79;21166;-53
2020/12/23 02:06:44;;;;;;;1.10;1.05;;;;;;;-2.25;92.96;101589.50;1766745;81;21542;-53
2020/12/23 02:09:11;;;;;;;0.28;0.28;;;;;;;-2.25;92.95;101593.98;1821099;78;21122;-53
2020/12/23 02:11:39;;;;;;;0.20;0.20;;;;;;;-2.26;92.97;101581.11;1821085;78;21584;-53
2020/12/23 02:14:06;;;;;;;0.40;0.40;;;;;;;-2.27;92.97;101580.79;1820997;78;21138;-54
2020/12/23 02:16:33;;;;;;;0.00;0.00;;;;;;;-2.27;93.01;101587.48;1766803;78;21695;-54
2020/12/23 02:19:01;;;;;;;0.00;0.00;;;;;;;-2.27;93.10;101583.47;1821189;77;21671;-54
2020/12/23 02:21:28;;;;;;;0.72;0.72;;;;;;;-2.26;93.13;101578.94;1821121;78;21095;-54
2020/12/23 02:23:55;;;;;;;0.08;0.08;;;;;;;-2.26;93.17;101570.40;1821128;77;21114;-54
2020/12/23 02:26:23;;;;;;;0.10;0.10;;;;;;;-2.25;93.16;101573.44;1820940;78;21139;-54
2020/12/23 02:28:50;;;;;;;0.40;0.40;;;;;;;-2.24;93.22;101572.41;1821154;78;21194;-54
2020/12/23 02:31:18;;;;;;;0.42;0.42;;;;;;;-2.24;93.27;101571.08;1821143;78;21151;-54
2020/12/23 02:33:45;;;;;;;0.55;0.50;;;;;;;-2.23;93.32;101567.38;1821267;78;21139;-53
2020/12/23 02:36:13;;;;;;;0.00;0.00;;;;;;;-2.23;93.19;101567.38;1821202;78;21427;-53
2020/12/23 02:38:41;;;;;;;0.30;0.30;;;;;;;-2.22;93.16;101562.37;1821175;78;21150;-54
2020/12/23 02:41:08;;;;;;;0.75;0.75;;;;;;;-2.22;93.18;101565.05;1821286;78;21135;-54
2020/12/23 02:43:35;;;;;;;0.10;0.10;;;;;;;-2.24;93.11;101563.05;1821138;78;21174;-54
2020/12/23 02:46:03;;;;;;;0.10;0.10;;;;;;;-2.24;93.14;101559.02;1821265;78;21143;-54
2020/12/23 02:48:31;;;;;;;0.35;0.35;;;;;;;-2.23;93.05;101566.55;1766939;77;21146;-54
2020/12/23 02:50:58;;;;;;;1.85;0.98;;;;;;;-2.24;92.98;101563.05;1821089;78;21173;-53
2020/12/23 02:53:26;;;;;;;0.53;0.53;;;;;;;-2.24;92.97;101565.72;1821079;78;21186;-54
2020/12/23 02:55:53;;;;;;;0.08;0.08;;;;;;;-2.24;92.93;101567.06;1821246;78;21461;-54
2020/12/23 02:58:20;;;;;;;0.10;0.10;;;;;;;-2.24;92.95;101563.05;1821134;78;21114;-54
2020/12/23 03:00:48;;;;;;;0.00;0.00;;;;;;;-2.23;92.93;101564.70;1821249;78;21119;-54
2020/12/23 03:03:16;;;;;;;0.68;0.68;;;;;;;-2.22;92.89;101562.37;1821158;78;21161;-54
2020/12/23 03:05:43;;;;;;;0.65;0.65;;;;;;;-2.22;92.86;101559.70;1821104;78;21118;-54
2020/12/23 03:08:10;;;;;;;0.62;0.62;;;;;;;-2.22;92.85;101551.66;1821326;78;21129;-54
2020/12/23 03:10:39;;;;;;;0.33;0.33;;;;;;;-2.22;92.87;101549.50;1821521;78;21095;-54
2020/12/23 03:13:07;;;;;;;0.40;0.40;;;;;;;-2.22;92.87;101545.48;1821604;78;21115;-54
2020/12/23 03:15:34;;;;;;;0.25;0.25;;;;;;;-2.22;92.82;101546.31;1821717;78;21553;-54
2020/12/23 03:18:02;;;;;;;0.37;0.37;;;;;;;-2.22;92.85;101544.14;1821684;78;21126;-53
2020/12/23 03:20:29;;;;;;;0.40;0.40;;;;;;;-2.23;92.77;101539.27;1821678;78;21094;-54
2020/12/23 03:22:57;;;;;;;0.90;0.90;;;;;;;-2.24;92.68;101544.30;1821517;78;21181;-54
2020/12/23 03:25:24;;;;;;;0.45;0.23;;;;;;;-2.23;92.63;101542.45;1821773;78;21430;-54
2020/12/23 03:27:51;;;;;;;0.47;0.47;;;;;;;-2.24;92.63;101542.95;1821585;78;21142;-54
2020/12/23 03:30:19;;;;;;;0.23;0.23;;;;;;;-2.24;92.48;101541.63;1821538;77;21723;-53
2020/12/23 03:32:46;;;;;;;0.03;0.03;;;;;;;-2.24;92.50;101539.45;1821653;78;21430;-53
2020/12/23 03:35:16;;;;;;;0.10;0.10;;;;;;;-2.24;92.43;101536.27;1821367;77;21142;-54
2020/12/23 03:37:43;;;;;;;0.57;0.57;;;;;;;-2.25;92.42;101530.59;1821752;78;21178;-54
2020/12/23 03:40:10;;;;;;;0.25;0.25;;;;;;;-2.25;92.46;101541.78;1821556;78;21541;-53
2020/12/23 03:42:38;;;;;;;0.28;0.28;;;;;;;-2.27;92.40;101531.25;1821590;78;21138;-54
2020/12/23 03:45:05;;;;;;;0.10;0.10;;;;;;;-2.26;92.46;101532.09;1821696;78;21530;-54
2020/12/23 03:47:33;;;;;;;0.00;0.00;;;;;;;-2.26;92.48;101525.39;1821748;78;21582;-54
2020/12/23 03:50:00;;;;;;;1.35;1.30;;;;;;;-2.24;92.53;101528.74;1821749;78;21086;-54
2020/12/23 03:52:27;;;;;;;0.40;0.40;;;;;;;-2.24;92.51;101532.76;1821505;78;21146;-54
2020/12/23 03:54:55;;;;;;;0.10;0.10;;;;;;;-2.24;92.49;101530.91;1821643;78;21139;-53
2020/12/23 03:57:22;;;;;;;0.10;0.10;;;;;;;-2.24;92.49;101524.22;1821603;78;21114;-54
2020/12/23 03:59:49;;;;;;;0.13;0.13;;;;;;;-2.23;92.44;101525.88;1821537;78;21429;-54
2020/12/23 04:02:17;;;;;;;0.00;0.00;;;;;;;-2.22;92.44;101520.05;1821493;78;21160;-54
2020/12/23 04:04:44;;;;;;;0.10;0.10;;;;;;;-2.23;92.46;101517.84;1821741;78;21142;-53
2020/12/23 04:07:12;;;;;;;0.60;0.60;;;;;;;-2.22;92.45;101511.50;1821388;78;21532;-54
2020/12/23 04:09:41;;;;;;;0.00;0.00;;;;;;;-2.21;92.42;101509.65;1821071;78;21126;-54
2020/12/23 04:12:09;;;;;;;0.00;0.00;;;;;;;-2.21;92.40;101506.47;1820924;78;21316;-54
2020/12/23 04:14:36;;;;;;;0.08;0.08;;;;;;;-2.19;92.37;101497.77;1821029;77;21118;-54
2020/12/23 04:17:04;;;;;;;1.07;0.55;;;;;;;-2.19;92.31;101498.27;1820946;78;21130;-53
2020/12/23 04:19:31;;;;;;;0.10;0.10;;;;;;;-2.18;92.36;101496.78;1821057;78;21127;-53
2020/12/23 04:21:59;;;;;;;0.35;0.35;;;;;;;-2.19;92.38;101492.41;1820977;78;21600;-54
2020/12/23 04:24:27;;;;;;;0.13;0.13;;;;;;;-2.17;92.46;101497.09;1820720;78;21110;-53
2020/12/23 04:26:54;;;;;;;0.20;0.20;;;;;;;-2.17;92.39;101494.42;1820796;78;21082;-54
2020/12/23 04:29:22;;;;;;;0.68;0.60;;;;;;;-2.16;92.42;101489.38;1821137;78;21115;-54
2020/12/23 04:31:49;;;;;;;1.50;0.55;;;;;;;-2.16;92.37;101486.70;1821051;78;21119;-54
2020/12/23 04:34:17;;;;;;;0.00;0.00;;;;;;;-2.14;92.30;101493.75;1821027;78;21150;-54
2020/12/23 04:36:44;;;;;;;0.00;0.00;;;;;;;-2.12;92.27;101494.42;1820970;78;21143;-54
2020/12/23 04:39:12;;;;;;;0.30;0.23;;;;;;;-2.11;92.29;101498.76;1821147;78;21123;-54
2020/12/23 04:41:39;;;;;;;0.20;0.20;;;;;;;-2.11;92.25;101496.91;1821150;78;21126;-54
2020/12/23 04:44:07;;;;;;;0.00;0.00;;;;;;;-2.11;92.21;101494.23;1820850;77;21174;-54
2020/12/23 04:46:40;;;;;;;0.00;0.00;;;;;;;-2.10;92.17;101499.94;1820855;78;21153;-53
2020/12/23 04:49:08;;;;;;;0.20;0.20;;;;;;;-2.08;92.22;101501.09;1821013;78;21099;-53
2020/12/23 04:51:39;;;;;;;0.25;0.25;;;;;;;-2.08;92.17;101490.38;1821120;78;21442;-54
2020/12/23 04:54:07;;;;;;;0.25;0.25;;;;;;;-2.06;92.00;101499.08;1821026;78;21610;-54
2020/12/23 04:56:35;;;;;;;6.97;0.80;;;;;;;-2.06;91.91;101495.06;1821059;78;21139;-54
2020/12/23 04:59:03;;;;;;;0.25;0.25;;;;;;;-2.06;91.82;101501.77;1821084;78;21600;-54
2020/12/23 05:01:31;;;;;;;0.78;0.70;;;;;;;-2.07;91.80;101501.44;1821074;78;21110;-54
2020/12/23 05:03:59;;;;;;;0.10;0.10;;;;;;;-2.07;91.72;101498.77;1820997;77;21138;-54
2020/12/23 05:06:26;;;;;;;0.10;0.10;;;;;;;-2.07;91.68;101502.78;1821053;78;21153;-54
2020/12/23 05:08:54;;;;;;;0.40;0.40;;;;;;;-2.07;91.69;101500.93;1821326;77;21130;-54
2020/12/23 05:11:21;;;;;;;0.30;0.30;;;;;;;-2.06;91.63;101500.42;1821703;78;21154;-54
2020/12/23 05:13:49;;;;;;;0.82;0.62;;;;;;;-2.06;91.63;101501.25;1821682;77;21239;-53
2020/12/23 05:16:23;;;;;;;0.17;0.17;;;;;;;-2.07;91.70;101498.25;1795326;78;21158;-53
2020/12/23 05:18:56;;;;;;;0.00;0.00;;;;;;;-2.05;91.69;101502.94;1821773;78;21518;-53
2020/12/23 05:21:24;;;;;;;0.20;0.20;;;;;;;-2.05;91.55;101499.41;1822002;78;21135;-54
2020/12/23 05:23:52;;;;;;;0.10;0.10;;;;;;;-2.05;91.41;101486.01;1821702;78;21247;-54
2020/12/23 05:26:20;;;;;;;0.45;0.33;;;;;;;-2.05;91.25;101490.02;1821664;78;21106;-54
2020/12/23 05:28:48;;;;;;;0.35;0.35;;;;;;;-2.04;91.19;101479.66;1821684;78;21334;-54
2020/12/23 05:31:17;;;;;;;0.42;0.42;;;;;;;-2.03;91.10;101496.05;1821814;78;21130;-53
2020/12/23 05:33:46;;;;;;;0.28;0.28;;;;;;;-2.03;91.00;101484.00;1821677;78;21159;-54
2020/12/23 05:36:18;;;;;;;0.42;0.42;;;;;;;-2.04;90.97;101487.70;1821034;78;21122;-53
2020/12/23 05:38:45;;;;;;;0.10;0.10;;;;;;;-2.03;90.90;101498.73;1821813;78;21208;-54
2020/12/23 05:41:14;;;;;;;0.80;0.80;;;;;;;-2.03;90.84;101496.91;1821587;78;21123;-54
2020/12/23 05:43:42;;;;;;;0.00;0.00;;;;;;;-2.02;90.74;101500.42;1821553;78;21138;-54
2020/12/23 05:46:11;;;;;;;0.20;0.20;;;;;;;-2.02;90.69;101505.27;1821683;78;21530;-54
2020/12/23 05:48:40;;;;;;;0.00;0.00;;;;;;;-2.00;90.67;101505.11;1821642;78;21118;-54
2020/12/23 05:51:09;;;;;;;0.30;0.30;;;;;;;-2.00;90.66;101491.20;1821753;78;21581;-54
2020/12/23 05:53:39;;;;;;;0.40;0.40;;;;;;;-1.99;90.59;101491.53;1764351;79;21435;-54
2020/12/23 05:56:08;;;;;;;0.45;0.42;;;;;;;-1.99;90.56;101481.32;1754140;81;21166;-54
2020/12/23 05:58:37;;;;;;;0.40;0.40;;;;;;;-1.99;90.58;101482.16;1772301;80;21173;-54
2020/12/23 06:01:07;;;;;;;0.20;0.20;;;;;;;-1.99;90.54;101476.80;1766190;80;21160;-53
2020/12/23 06:03:55;;;;;;;0.10;0.10;;;;;;;-1.99;90.41;101475.45;1791254;78;21160;-54
2020/12/23 06:06:29;;;;;;;0.03;0.03;;;;;;;-1.99;90.44;101482.66;1762295;80;21149;-54
2020/12/23 06:08:59;;;;;;;0.10;0.10;;;;;;;-2.00;90.45;101480.49;1791007;78;21156;-54
2020/12/23 06:11:42;;;;;;;0.15;0.15;;;;;;;-1.98;90.56;101481.64;1790706;80;21153;-53
2020/12/23 06:14:24;;;;;;;0.30;0.30;;;;;;;-1.98;90.51;101474.94;1712107;81;21199;-53
2020/12/23 06:16:59;;;;;;;0.47;0.47;;;;;;;-1.96;90.35;101474.27;1724547;83;21107;-54
2020/12/23 06:19:36;;;;;;;0.10;0.10;;;;;;;-1.95;90.35;101477.30;1727959;81;21142;-54
2020/12/23 06:22:05;;;;;;;0.53;0.53;;;;;;;-1.93;90.35;101474.44;1732351;82;21555;-53
2020/12/23 06:24:33;;;;;;;0.05;0.05;;;;;;;-1.92;90.46;101474.27;1732373;82;20983;-54
2020/12/23 06:27:05;;;;;;;0.10;0.10;;;;;;;-1.89;90.46;101475.77;1732602;82;21105;-54
2020/12/23 06:29:36;;;;;;;0.70;0.70;;;;;;;-1.89;90.42;101479.28;1732406;82;21479;-54
2020/12/23 06:32:19;;;;;;;0.20;0.20;;;;;;;-1.86;90.36;101485.63;1732639;82;21192;-54
2020/12/23 06:34:58;;;;;;;0.30;0.30;;;;;;;-1.82;90.46;101486.96;1732508;82;21170;-53
2020/12/23 06:37:31;;;;;;;0.10;0.10;;;;;;;-1.79;90.31;101486.61;1732517;82;21509;-54
2020/12/23 06:39:58;;;;;;;0.30;0.30;;;;;;;-1.76;90.21;101494.30;1732729;82;21137;-54
2020/12/23 06:42:28;;;;;;;0.78;0.78;;;;;;;-1.71;90.02;101490.27;1732495;82;21149;-54
2020/12/23 06:45:02;;;;;;;0.10;0.10;;;;;;;-1.68;89.95;101493.94;1732568;81;21146;-54
2020/12/23 06:47:32;;;;;;;0.78;0.70;;;;;;;-1.66;89.87;101500.80;1732734;82;21549;-54
2020/12/23 06:50:13;;;;;;;0.68;0.68;;;;;;;-1.64;89.71;101496.61;1732523;81;21154;-54
2020/12/23 06:52:43;;;;;;;0.20;0.20;;;;;;;-1.63;89.59;101500.47;1732752;82;21114;-54
2020/12/23 06:55:14;;;;;;;0.40;0.40;;;;;;;-1.63;89.48;101497.80;1732639;81;21150;-53
2020/12/23 06:57:46;;;;;;;0.55;0.55;;;;;;;-1.62;89.41;101498.63;1732669;82;21150;-53
2020/12/23 07:00:24;;;;;;;0.13;0.13;;;;;;;-1.61;89.33;101504.30;1732652;81;21122;-54
2020/12/23 07:03:01;;;;;;;0.20;0.20;;;;;;;-1.61;89.27;101498.94;1732561;82;21163;-53
2020/12/23 07:05:34;;;;;;;0.20;0.20;;;;;;;-1.61;89.20;101489.56;1732375;82;21643;-54
2020/12/23 07:08:07;;;;;;;0.10;0.10;;;;;;;-1.62;89.21;101494.09;1731981;81;21096;-54
2020/12/23 07:10:45;;;;;;;0.10;0.10;;;;;;;-1.62;89.11;101491.41;1727138;81;21124;-53
2020/12/23 07:13:19;;;;;;;0.15;0.15;;;;;;;-1.60;89.08;101491.25;1723534;83;21327;-54
2020/12/23 07:15:56;;;;;;;0.35;0.35;;;;;;;-1.59;89.06;101490.23;1725836;82;21177;-54
2020/12/23 07:18:29;;;;;;;1.20;1.20;;;;;;;-1.58;89.08;101482.02;1706651;83;21160;-54
2020/12/23 07:21:04;;;;;;;;;;;;;;;-1.57;89.03;101489.04;1701975;83;21141;-53
2020/12/23 07:23:34;;;;;;;1.85;0.72;;;;;;;-1.55;88.96;101486.20;1700505;83;20315;-54
2020/12/23 07:26:06;;;;;;;0.00;0.00;;;;;;;-1.54;89.12;101490.53;1724649;83;21630;-54
2020/12/23 07:28:39;;;;;;;0.30;0.30;;;;;;;-1.53;89.10;101489.55;1724744;81;21217;-54
2020/12/23 07:31:11;;;;;;;1.55;0.45;;;;;;;-1.52;88.97;101483.16;1726834;82;21630;-53
2020/12/23 07:33:39;;;;;;;0.05;0.05;;;;;;;-1.52;88.87;101481.82;1726630;83;20975;-54
2020/12/23 07:36:08;;;;;;;1.27;0.65;;;;;;;-1.52;88.83;101477.80;1726979;82;21162;-54
2020/12/23 07:38:38;;;;;;;1.90;0.62;;;;;;;-1.53;88.83;101478.83;1727053;81;21138;-53
2020/12/23 07:41:06;;;;;;;0.30;0.30;;;;;;;-1.52;88.97;101471.09;1727174;82;21187;-54
2020/12/23 07:43:33;;;;;;;0.10;0.10;;;;;;;-1.52;88.94;101464.39;1700393;81;21142;-54
2020/12/23 07:46:01;;;;;;;0.20;0.20;;;;;;;-1.52;88.94;101461.72;1726986;83;21580;-53
2020/12/23 07:48:31;;;;;;;0.03;0.03;;;;;;;-1.49;88.93;101463.21;1727045;83;21125;-54
2020/12/23 07:50:59;;;;;;;0.35;0.35;;;;;;;-1.46;88.92;101462.34;1711587;83;21157;-54
2020/12/23 07:53:28;;;;;;;1.52;0.70;;;;;;;-1.43;88.86;101447.27;1726835;83;21276;-54
2020/12/23 07:56:07;;;;;;;0.13;0.13;;;;;;;-1.40;88.73;101444.23;1704805;83;21162;-53
2020/12/23 07:58:35;;;;;;;1.05;0.75;;;;;;;-1.38;88.76;101439.53;1726983;83;21113;-54
2020/12/23 08:01:07;;;;;;;0.40;0.40;;;;;;;-1.35;88.55;101437.00;1726921;83;21135;-54
2020/12/23 08:03:35;;;;;;;0.62;0.62;;;;;;;-1.33;88.50;101434.98;1695073;83;21155;-53
2020/12/23 08:06:08;;;;;;;0.45;0.45;;;;;;;-1.30;88.41;101427.91;1725840;83;21363;-54
2020/12/23 08:08:41;;;;;;;0.65;0.65;;;;;;;-1.27;88.40;101431.58;1701172;83;21145;-54
2020/12/23 08:11:12;;;;;;;0.20;0.20;;;;;;;-1.22;88.59;101427.02;1734949;82;21217;-54
2020/12/23 08:13:39;;;;;;;0.95;0.88;;;;;;;-1.18;88.46;101427.84;1786607;78;21129;-54
2020/12/23 08:16:09;;;;;;;0.10;0.10;;;;;;;-1.13;88.13;101424.11;1785714;80;21173;-54
2020/12/23 08:18:38;;;;;;;0.30;0.30;;;;;;;-1.10;88.05;101422.41;1785080;79;21619;-54
2020/12/23 08:21:11;;;;;;;0.30;0.30;;;;;;;-1.07;87.98;101421.21;1776446;79;21166;-54
2020/12/23 08:23:39;;;;;;;0.30;0.30;;;;;;;-1.04;87.83;101420.84;1784602;80;21200;-53
2020/12/23 08:26:08;;;;;;;0.25;0.25;;;;;;;-1.02;87.82;101413.97;1750840;81;21174;-54
2020/12/23 08:28:39;;;;;;;1.98;0.55;;;;;;;-1.02;87.76;101405.41;1718006;81;21152;-54
2020/12/23 08:31:13;;;;;;;0.40;0.40;;;;;;;-1.02;87.48;101402.72;1725515;81;21171;-54
2020/12/23 08:33:41;;;;;;;0.08;0.08;;;;;;;-1.02;87.35;101392.51;1749086;81;21193;-54
2020/12/23 08:36:08;;;;;;;0.10;0.10;;;;;;;-1.01;87.41;101395.53;1749775;80;21544;-54
2020/12/23 08:38:38;;;;;;;1.07;0.35;;;;;;;-1.00;87.21;101390.48;1732997;81;21119;-54
2020/12/23 08:41:17;;;;;;;1.42;0.68;;;;;;;-0.99;87.19;101389.45;1740026;81;21145;-54
2020/12/23 08:43:46;;;;;;;0.25;0.25;;;;;;;-0.98;87.05;101387.95;1785754;78;21181;-54
2020/12/23 08:46:25;;;;;;;2.00;0.42;;;;;;;-0.97;87.03;101377.53;1786134;80;21118;-54
2020/12/23 08:48:54;;;;;;;0.42;0.30;;;;;;;-0.95;86.81;101378.19;1798171;79;21107;-54
2020/12/23 08:51:24;;;;;;;0.60;0.60;;;;;;;-0.94;86.84;101374.98;1794005;79;21138;-54
2020/12/23 08:53:52;;;;;;;0.10;0.10;;;;;;;-0.90;86.86;101364.23;1766890;80;21243;-54
2020/12/23 08:56:33;;;;;;;0.30;0.30;;;;;;;-0.85;87.08;101363.17;1754631;81;21140;-54
2020/12/23 08:59:05;;;;;;;1.10;0.65;;;;;;;-0.77;86.87;101356.38;1785181;80;21181;-54
2020/12/23 09:01:34;;;;;;;0.17;0.17;;;;;;;-0.71;86.58;101342.25;1786078;80;21561;-54
2020/12/23 09:04:09;;;;;;;0.13;0.13;;;;;;;-0.65;86.47;101342.84;1785544;78;21169;-54
2020/12/23 09:06:44;;;;;;;0.70;0.68;;;;;;;-0.59;86.23;101337.75;1784446;80;21682;-54
2020/12/23 09:09:18;;;;;;;0.10;0.10;;;;;;;-0.58;85.64;101336.23;1730239;82;21561;-54
2020/12/23 09:11:54;;;;;;;0.20;0.20;;;;;;;-0.57;85.45;101335.23;1723711;83;21169;-54
2020/12/23 09:14:38;;;;;;;4.30;0.62;;;;;;;-0.58;85.42;101317.44;1726675;81;21134;-54
2020/12/23 09:17:08;;;;;;;0.20;0.20;;;;;;;-0.56;85.41;101315.92;1732268;81;21441;-54
2020/12/23 09:19:53;;;;;;;0.53;0.50;;;;;;;-0.54;85.32;101304.50;1732989;80;21169;-54
2020/12/23 09:22:31;;;;;;;1.47;1.37;;;;;;;-0.51;85.37;101310.83;1732213;82;21152;-54
2020/12/23 09:25:21;;;;;;;0.50;0.50;;;;;;;-0.48;85.26;101319.34;1746581;81;21118;-54
2020/12/23 09:27:56;;;;;;;0.30;0.30;;;;;;;-0.46;85.34;101322.67;1635459;86;21188;-54
2020/12/23 09:30:36;;;;;;;1.55;0.98;;;;;;;-0.45;84.86;101310.08;1702349;82;21106;-54
2020/12/23 09:33:08;;;;;;;0.50;0.50;;;;;;;-0.46;84.72;101307.91;1720018;81;21162;-54
2020/12/23 09:35:36;;;;;;;0.35;0.33;;;;;;;-0.48;84.83;101300.54;1723769;81;21153;-54
2020/12/23 09:38:18;;;;;;;0.98;0.98;;;;;;;-0.45;84.62;101306.88;1710893;83;21716;-54
2020/12/23 09:40:48;;;;;;;0.50;0.50;;;;;;;-0.45;84.69;101308.22;1722303;82;21426;-54
2020/12/23 09:43:18;;;;;;;0.28;0.28;;;;;;;-0.44;84.79;101297.81;1735535;81;21162;-54
2020/12/23 09:45:46;;;;;;;0.28;0.28;;;;;;;-0.39;84.89;101304.49;1736342;81;21588;-54
2020/12/23 09:48:15;;;;;;;0.10;0.10;;;;;;;-0.38;84.76;101291.37;1735426;81;21119;-54
2020/12/23 09:50:42;;;;;;;1.02;0.42;;;;;;;-0.34;84.77;101291.34;1723335;83;21446;-54
2020/12/23 09:53:11;;;;;;;0.23;0.23;;;;;;;-0.33;84.35;101291.13;1723764;83;21141;-53
2020/12/23 09:55:42;;;;;;;0.33;0.33;;;;;;;-0.31;84.21;101289.61;1731988;81;21142;-54
2020/12/23 09:58:10;;;;;;;0.28;0.28;;;;;;;-0.30;84.12;101297.98;1714942;82;21163;-54
2020/12/23 10:00:38;;;;;;;0.13;0.13;;;;;;;-0.29;83.99;101293.77;1746009;80;21207;-54
2020/12/23 10:03:05;;;;;;;0.40;0.40;;;;;;;-0.29;83.94;101288.92;1719329;81;21558;-54
2020/12/23 10:05:33;;;;;;;0.53;0.53;;;;;;;-0.28;83.97;101286.03;1715351;83;21162;-54
2020/12/23 10:08:01;;;;;;;0.68;0.68;;;;;;;-0.24;84.08;101278.45;1720786;83;20988;-54
2020/12/23 10:10:28;;;;;;;0.50;0.50;;;;;;;-0.19;84.00;101281.40;1725667;81;21142;-53
2020/12/23 10:12:56;;;;;;;0.33;0.33;;;;;;;-0.16;83.65;101286.39;1721428;82;21224;-54
2020/12/23 10:15:23;;;;;;;0.62;0.62;;;;;;;-0.15;83.28;101286.70;1786906;80;21126;-54
2020/12/23 10:17:51;;;;;;;0.30;0.30;;;;;;;-0.15;83.35;101285.35;1785487;78;21475;-54
2020/12/23 10:20:18;;;;;;;0.15;0.15;;;;;;;-0.14;83.42;101284.34;1763066;80;21124;-54
2020/12/23 10:22:46;;;;;;;0.40;0.40;;;;;;;-0.12;83.38;101283.66;1751185;81;21576;-54
2020/12/23 10:25:13;;;;;;;0.23;0.23;;;;;;;-0.09;83.49;101274.39;1717531;83;21196;-54
2020/12/23 10:27:41;;;;;;;0.55;0.55;;;;;;;-0.09;83.19;101264.47;1762666;80;21125;-54
2020/12/23 10:30:08;;;;;;;0.00;0.00;;;;;;;-0.09;83.24;101266.33;1767314;80;21181;-54
2020/12/23 10:32:38;;;;;;;0.60;0.60;;;;;;;-0.08;83.30;101264.77;1771509;80;21142;-54
2020/12/23 10:35:07;;;;;;;1.65;0.80;;;;;;;-0.08;83.30;101277.38;1762410;80;21168;-54
2020/12/23 10:37:36;;;;;;;3.15;1.02;;;;;;;-0.08;83.15;101265.30;1779768;80;21848;-54
2020/12/23 10:40:05;;;;;;;0.20;0.20;;;;;;;-0.09;83.26;101264.47;1777628;80;21130;-54
2020/12/23 10:42:33;;;;;;;12.45;1.35;;;;;;;-0.10;83.32;101261.47;1788999;80;21140;-54
2020/12/23 10:45:01;;;;;;;0.65;0.60;;;;;;;-0.07;83.38;101256.23;1762614;81;21120;-54
2020/12/23 10:47:31;;;;;;;0.50;0.50;;;;;;;-0.06;83.37;101251.16;1774543;80;21146;-54
2020/12/23 10:50:00;;;;;;;0.00;0.00;;;;;;;-0.05;83.35;101247.44;1790825;80;21190;-54
2020/12/23 10:52:27;;;;;;;0.40;0.40;;;;;;;-0.04;83.37;101249.95;1784684;80;21133;-54
2020/12/23 10:54:57;;;;;;;0.72;0.10;;;;;;;-0.04;83.39;101240.55;1733150;82;21103;-54
2020/12/23 10:57:25;;;;;;;0.30;0.30;;;;;;;-0.03;83.42;101239.51;1780849;80;21134;-54
2020/12/23 10:59:53;;;;;;;0.72;0.72;;;;;;;-0.01;83.23;101232.09;1784640;80;21134;-54
2020/12/23 11:02:21;;;;;;;0.08;0.08;;;;;;;-0.02;83.23;101229.10;1768367;80;21153;-54
2020/12/23 11:04:49;;;;;;;0.00;0.00;;;;;;;-0.04;83.21;101222.25;1790159;79;21094;-54
2020/12/23 11:07:17;;;;;;;0.20;0.20;;;;;;;-0.05;83.39;101224.11;1734805;82;21181;-54
2020/12/23 11:09:45;;;;;;;0.90;0.82;;;;;;;-0.05;83.40;101220.08;1766919;79;21102;-54
2020/12/23 11:12:13;;;;;;;0.78;0.78;;;;;;;-0.06;83.39;101221.61;1788885;80;21117;-54
2020/12/23 11:14:42;;;;;;;0.93;0.70;;;;;;;-0.09;83.48;101221.48;1749480;80;21126;-54
2020/12/23 11:17:10;;;;;;;0.30;0.30;;;;;;;-0.12;83.43;101213.80;1729081;82;21124;-54
2020/12/23 11:19:37;;;;;;;0.40;0.40;;;;;;;-0.16;83.56;101217.88;1729030;81;21324;-54
2020/12/23 11:22:05;;;;;;;0.65;0.65;;;;;;;-0.19;83.66;101219.61;1724180;81;21156;-54
2020/12/23 11:24:33;;;;;;;0.45;0.35;;;;;;;-0.22;83.85;101215.45;1704516;82;21126;-54
2020/12/23 11:27:01;;;;;;;0.10;0.10;;;;;;;-0.24;83.95;101213.98;1721552;81;21198;-54
2020/12/23 11:29:29;;;;;;;0.57;0.57;;;;;;;-0.26;83.97;101208.78;1739001;81;21134;-54
2020/12/23 11:31:56;;;;;;;0.28;0.28;;;;;;;-0.27;84.09;101214.37;1729140;82;21473;-54
2020/12/23 11:34:24;;;;;;;0.35;0.35;;;;;;;-0.29;84.28;101209.69;1729348;82;21181;-54